Time;durP1;ratioP1;P1;durP2;ratioP2;P2;SDS_P1;SDS_P2;PMS_P1;PMS_P2;Temp;Humidity;BMP_temperature;BMP_pressure;BME280_temperature;BME280_humidity;BME280_pressure;Samples;Min_cycle;Max_cycle;Signal;HPM_P1;HPM_P2
2022/08/08 00:01:29;;;;;;;;;;;14.70;99.90;;;;;;5070766;28;19908;-68
2022/08/08 00:04:15;;;;;;;;;;;14.60;99.90;;;;;;5070716;28;19915;-68
2022/08/08 00:06:47;;;;;;;;;;;14.60;99.90;;;;;;5070369;28;20390;-68
2022/08/08 00:09:16;;;;;;;;;;;14.50;99.90;;;;;;5069023;28;19952;-68
2022/08/08 00:11:59;;;;;;;;;;;14.50;99.90;;;;;;5070633;28;20375;-68
2022/08/08 00:14:40;;;;;;;;;;;14.40;99.90;;;;;;5070377;28;19912;-67
2022/08/08 00:17:25;;;;;;;;;;;14.40;99.90;;;;;;5070747;28;19912;-68
2022/08/08 00:19:57;;;;;;;;;;;14.30;99.90;;;;;;5070642;28;19946;-67
2022/08/08 00:22:24;;;;;;;;;;;14.30;99.90;;;;;;5070252;28;19909;-68
2022/08/08 00:24:54;;;;;;;;;;;14.30;99.90;;;;;;5070494;28;19999;-68
2022/08/08 00:27:20;;;;;;;;;;;14.20;99.90;;;;;;5070439;28;19999;-68
2022/08/08 00:29:49;;;;;;;;;;;14.30;99.90;;;;;;5070282;28;19966;-68
2022/08/08 00:32:34;;;;;;;;;;;14.20;99.90;;;;;;5070082;28;19962;-68
2022/08/08 00:35:20;;;;;;;;;;;14.20;99.90;;;;;;5088427;28;20003;-68
2022/08/08 00:38:05;;;;;;;;;;;14.10;99.90;;;;;;5089894;28;19909;-68
2022/08/08 00:40:35;;;;;;;;;;;14.00;99.90;;;;;;5089852;28;19954;-67
2022/08/08 00:43:21;;;;;;;;;;;14.00;99.90;;;;;;5090172;28;19909;-68
2022/08/08 00:46:06;;;;;;;;;;;14.00;99.90;;;;;;5080884;28;19920;-67
2022/08/08 00:48:47;;;;;;;;;;;14.00;99.90;;;;;;5076148;28;19913;-67
2022/08/08 00:51:28;;;;;;;;;;;14.00;99.90;;;;;;5076547;28;20382;-67
2022/08/08 00:53:57;;;;;;;;;;;13.90;99.90;;;;;;5076206;28;19912;-67
2022/08/08 00:56:43;;;;;;;;;;;13.90;99.90;;;;;;5076580;28;20329;-67
2022/08/08 00:59:28;;;;;;;;;;;13.80;99.90;;;;;;5075986;28;20286;-67
2022/08/08 01:02:13;;;;;;;;;;;13.70;99.90;;;;;;5075983;28;20319;-67
2022/08/08 01:04:59;;;;;;;;;;;13.70;99.90;;;;;;5075837;28;20290;-67
2022/08/08 01:07:44;;;;;;;;;;;13.50;99.90;;;;;;5058026;28;20279;-67
2022/08/08 01:10:10;;;;;;;;;;;;;;;;;;5075732;28;19967;-67
2022/08/08 01:12:55;;;;;;;;;;;13.50;99.90;;;;;;5075886;28;19908;-67
2022/08/08 01:15:41;;;;;;;;;;;13.40;99.90;;;;;;5075711;28;19919;-67
2022/08/08 01:18:26;;;;;;;;;;;13.40;99.90;;;;;;5075784;28;20378;-68
2022/08/08 01:21:12;;;;;;;;;;;13.30;99.90;;;;;;5075644;28;20003;-68
2022/08/08 01:26:38;;;;;;;;;;;13.20;99.90;;;;;;5091264;27;19919;-67
2022/08/08 01:29:19;;;;;;;;;;;13.10;99.90;;;;;;5091200;28;19912;-67
2022/08/08 01:32:04;;;;;;;;;;;13.10;99.90;;;;;;5091351;28;19934;-67
2022/08/08 01:34:49;;;;;;;;;;;13.00;99.90;;;;;;5091168;28;19951;-67
2022/08/08 01:37:35;;;;;;;;;;;13.00;99.90;;;;;;5091171;28;19950;-67
2022/08/08 01:40:09;;;;;;;;;;;13.00;99.90;;;;;;5091020;28;19948;-68
2022/08/08 01:42:55;;;;;;;;;;;13.00;99.90;;;;;;5091149;28;20277;-67
2022/08/08 01:45:40;;;;;;;;;;;12.90;99.90;;;;;;5090927;28;19913;-67
2022/08/08 01:48:21;;;;;;;;;;;12.90;99.90;;;;;;5090840;28;19915;-67
2022/08/08 01:51:06;;;;;;;;;;;12.90;99.90;;;;;;5090732;28;19986;-67
2022/08/08 01:53:51;;;;;;;;;;;12.90;99.90;;;;;;5090797;28;19955;-67
2022/08/08 01:56:23;;;;;;;;;;;12.80;99.90;;;;;;5090802;28;19912;-67
2022/08/08 01:58:54;;;;;;;;;;;12.80;99.90;;;;;;5089313;28;19947;-67
2022/08/08 02:01:40;;;;;;;;;;;12.70;99.90;;;;;;5090583;28;19995;-67
2022/08/08 02:06:54;;;;;;;;;;;12.70;99.90;;;;;;5091303;27;20268;-67
2022/08/08 02:09:30;;;;;;;;;;;12.70;99.90;;;;;;5091422;28;19912;-67
2022/08/08 02:11:57;;;;;;;;;;;12.60;99.90;;;;;;5091193;28;19915;-67
2022/08/08 02:14:34;;;;;;;;;;;12.70;99.90;;;;;;5091041;28;19912;-67
2022/08/08 02:17:04;;;;;;;;;;;12.70;99.90;;;;;;5091285;28;19908;-67
2022/08/08 02:19:35;;;;;;;;;;;12.70;99.90;;;;;;5090979;28;19916;-67
2022/08/08 02:22:38;;;;;;;;;;;12.60;99.90;;;;;;5089707;28;19909;-67
2022/08/08 02:24:55;;;;;;;;;;;12.70;99.90;;;;;;5090694;28;19916;-67
2022/08/08 02:27:25;;;;;;;;;;;12.70;99.90;;;;;;5090833;28;19908;-67
2022/08/08 02:30:07;;;;;;;;;;;12.70;99.90;;;;;;5091068;28;20336;-67
2022/08/08 02:32:53;;;;;;;;;;;12.70;99.90;;;;;;5090699;28;19908;-67
2022/08/08 02:35:38;;;;;;;;;;;12.80;99.90;;;;;;5090724;28;19950;-67
2022/08/08 02:38:23;;;;;;;;;;;12.80;99.90;;;;;;5090697;28;20003;-67
2022/08/08 02:41:09;;;;;;;;;;;12.80;99.90;;;;;;5090739;28;19908;-67
2022/08/08 02:43:48;;;;;;;;;;;12.80;99.90;;;;;;5090528;28;19909;-67
2022/08/08 02:46:18;;;;;;;;;;;12.70;99.90;;;;;;5090660;28;19913;-67
2022/08/08 02:49:03;;;;;;;;;;;12.70;99.90;;;;;;5090390;28;20385;-67
2022/08/08 02:51:49;;;;;;;;;;;12.70;99.90;;;;;;5090420;28;19912;-67
2022/08/08 02:54:26;;;;;;;;;;;12.70;99.90;;;;;;5090397;28;20339;-67
2022/08/08 02:57:12;;;;;;;;;;;12.70;99.90;;;;;;5090285;28;19919;-67
2022/08/08 02:59:57;;;;;;;;;;;12.60;99.90;;;;;;5090242;28;19916;-67
2022/08/08 03:02:42;;;;;;;;;;;12.70;99.90;;;;;;5090198;28;20435;-67
2022/08/08 03:05:18;;;;;;;;;;;12.70;99.90;;;;;;5096260;28;19920;-67
2022/08/08 03:08:03;;;;;;;;;;;12.60;99.90;;;;;;5110655;28;20431;-67
2022/08/08 03:10:39;;;;;;;;;;;12.70;99.90;;;;;;5110291;28;20369;-67
2022/08/08 03:13:25;;;;;;;;;;;12.70;99.90;;;;;;5110576;28;19958;-67
2022/08/08 03:16:10;;;;;;;;;;;12.70;99.90;;;;;;5110188;28;19943;-67
2022/08/08 03:18:55;;;;;;;;;;;12.70;99.90;;;;;;5096224;28;20286;-67
2022/08/08 03:21:23;;;;;;;;;;;12.80;99.90;;;;;;5096859;28;19908;-67
2022/08/08 03:23:49;;;;;;;;;;;12.70;99.90;;;;;;5096792;28;20370;-67
2022/08/08 03:26:17;;;;;;;;;;;12.70;99.90;;;;;;5096380;28;19919;-67
2022/08/08 03:28:45;;;;;;;;;;;12.70;99.90;;;;;;5096685;28;20494;-67
2022/08/08 03:33:57;;;;;;;;;;;12.70;99.90;;;;;;5096117;28;19958;-67
2022/08/08 03:36:24;;;;;;;;;;;12.70;99.90;;;;;;5078458;28;19908;-67
2022/08/08 03:38:50;;;;;;;;;;;12.70;99.90;;;;;;5096536;28;20290;-67
2022/08/08 03:41:16;;;;;;;;;;;12.70;99.90;;;;;;5096411;28;20373;-67
2022/08/08 03:43:52;;;;;;;;;;;12.60;99.90;;;;;;5096161;28;19915;-67
2022/08/08 03:46:18;;;;;;;;;;;12.60;99.90;;;;;;5077959;28;20294;-67
2022/08/08 03:48:53;;;;;;;;;;;12.60;99.90;;;;;;5096322;28;19912;-67
2022/08/08 03:51:18;;;;;;;;;;;12.50;99.90;;;;;;5095997;28;19908;-67
2022/08/08 03:53:44;;;;;;;;;;;12.50;99.90;;;;;;5096211;28;19912;-67
2022/08/08 03:56:09;;;;;;;;;;;12.50;99.90;;;;;;5096172;28;19940;-67
2022/08/08 03:58:35;;;;;;;;;;;12.50;99.90;;;;;;5096121;28;19908;-67
2022/08/08 04:01:01;;;;;;;;;;;12.50;99.90;;;;;;5095733;28;19908;-67
2022/08/08 04:03:33;;;;;;;;;;;12.50;99.90;;;;;;5095830;28;19954;-67
2022/08/08 04:06:02;;;;;;;;;;;12.50;99.90;;;;;;5095410;28;20446;-67
2022/08/08 04:08:28;;;;;;;;;;;12.50;99.90;;;;;;5096000;28;19961;-67
2022/08/08 04:10:53;;;;;;;;;;;12.50;99.90;;;;;;5095638;28;20391;-67
2022/08/08 04:13:20;;;;;;;;;;;12.50;99.90;;;;;;5095578;28;19908;-67
2022/08/08 04:15:46;;;;;;;;;;;12.50;99.90;;;;;;5095778;28;19908;-67
2022/08/08 04:18:11;;;;;;;;;;;12.60;99.90;;;;;;5095700;28;19909;-67
2022/08/08 04:20:37;;;;;;;;;;;12.60;99.90;;;;;;5095673;28;20380;-67
2022/08/08 04:23:03;;;;;;;;;;;12.60;99.90;;;;;;5095625;28;19953;-67
2022/08/08 04:25:29;;;;;;;;;;;12.70;99.90;;;;;;5095581;28;19919;-67
2022/08/08 04:27:55;;;;;;;;;;;12.70;99.90;;;;;;5095025;28;20350;-66
2022/08/08 04:30:20;;;;;;;;;;;12.70;99.90;;;;;;5095049;28;20329;-66
2022/08/08 04:32:47;;;;;;;;;;;12.70;99.90;;;;;;5095425;28;19908;-66
2022/08/08 04:35:12;;;;;;;;;;;12.70;99.90;;;;;;5077353;28;19912;-68
2022/08/08 04:37:38;;;;;;;;;;;12.70;99.90;;;;;;5095054;28;19966;-67
2022/08/08 04:40:04;;;;;;;;;;;12.70;99.90;;;;;;5095270;28;20105;-67
2022/08/08 04:42:32;;;;;;;;;;;12.70;99.90;;;;;;5076871;28;20014;-67
2022/08/08 04:44:59;;;;;;;;;;;12.80;99.90;;;;;;5095109;28;20391;-67
2022/08/08 04:47:24;;;;;;;;;;;12.90;99.90;;;;;;5094859;28;19912;-67
2022/08/08 04:49:50;;;;;;;;;;;12.90;99.90;;;;;;5095007;28;19964;-67
2022/08/08 04:52:15;;;;;;;;;;;13.00;99.90;;;;;;5095026;28;19998;-67
2022/08/08 04:54:41;;;;;;;;;;;13.10;99.90;;;;;;5095012;28;20269;-67
2022/08/08 04:57:06;;;;;;;;;;;13.10;99.90;;;;;;5094703;28;19915;-67
2022/08/08 04:59:32;;;;;;;;;;;13.30;99.90;;;;;;5094645;28;19908;-67
2022/08/08 05:01:57;;;;;;;;;;;13.40;99.90;;;;;;5094916;28;20282;-67
2022/08/08 05:04:23;;;;;;;;;;;13.50;99.90;;;;;;5094561;28;19908;-67
2022/08/08 05:06:48;;;;;;;;;;;13.60;99.90;;;;;;5094270;28;19976;-67
2022/08/08 05:09:14;;;;;;;;;;;13.70;99.90;;;;;;5094407;28;20473;-67
2022/08/08 05:11:39;;;;;;;;;;;13.70;99.90;;;;;;5094737;28;19908;-67
2022/08/08 05:14:05;;;;;;;;;;;13.80;99.90;;;;;;5094630;28;19912;-67
2022/08/08 05:16:31;;;;;;;;;;;13.80;99.90;;;;;;5094631;28;20388;-67
2022/08/08 05:18:57;;;;;;;;;;;14.00;99.90;;;;;;5076435;28;19960;-67
2022/08/08 05:21:22;;;;;;;;;;;14.10;99.90;;;;;;5094156;28;19908;-67
2022/08/08 05:23:48;;;;;;;;;;;14.20;99.90;;;;;;5094286;28;19915;-67
2022/08/08 05:26:13;;;;;;;;;;;14.20;99.90;;;;;;5094296;28;19912;-67
2022/08/08 05:28:39;;;;;;;;;;;14.20;99.90;;;;;;5094024;28;19912;-67
2022/08/08 05:31:04;;;;;;;;;;;14.20;99.90;;;;;;5094115;28;20290;-67
2022/08/08 05:33:30;;;;;;;;;;;14.20;99.90;;;;;;5094029;28;20001;-68
2022/08/08 05:35:58;;;;;;;;;;;14.30;99.90;;;;;;5094221;28;19955;-67
2022/08/08 05:38:25;;;;;;;;;;;14.50;99.90;;;;;;5093961;28;20056;-67
2022/08/08 05:40:51;;;;;;;;;;;14.60;99.90;;;;;;5093758;28;19915;-67
2022/08/08 05:43:22;;;;;;;;;;;14.80;99.90;;;;;;5094142;28;20365;-67
2022/08/08 05:45:48;;;;;;;;;;;14.90;99.90;;;;;;5094057;28;20358;-67
2022/08/08 05:48:14;;;;;;;;;;;15.30;99.90;;;;;;5093756;28;20010;-67
2022/08/08 05:50:40;;;;;;;;;;;17.10;99.90;;;;;;5093752;28;19912;-67
2022/08/08 05:53:06;;;;;;;;;;;18.60;99.90;;;;;;5093755;28;19961;-68
2022/08/08 05:55:33;;;;;;;;;;;20.60;99.90;;;;;;5093998;28;19938;-68
2022/08/08 05:57:58;;;;;;;;;;;21.90;99.90;;;;;;5093970;28;19908;-68
2022/08/08 06:00:41;;;;;;;;;;;23.10;99.90;;;;;;5094018;28;20404;-68
2022/08/08 06:03:09;;;;;;;;;;;24.10;99.90;;;;;;5093567;28;19948;-68
2022/08/08 06:05:39;;;;;;;;;;;23.90;98.00;;;;;;5093360;28;19920;-68
2022/08/08 06:08:06;;;;;;;;;;;23.60;99.20;;;;;;5093573;28;19912;-68
2022/08/08 06:10:32;;;;;;;;;;;23.90;98.30;;;;;;5093866;28;19908;-68
2022/08/08 06:12:59;;;;;;;;;;;23.20;98.70;;;;;;5093751;28;20358;-68
2022/08/08 06:15:24;;;;;;;;;;;24.50;97.70;;;;;;5093774;28;20378;-68
2022/08/08 06:17:50;;;;;;;;;;;25.40;94.30;;;;;;5093535;28;19915;-67
2022/08/08 06:20:16;;;;;;;;;;;24.80;94.50;;;;;;5075799;28;19909;-67
2022/08/08 06:22:41;;;;;;;;;;;24.60;93.70;;;;;;5093792;28;19909;-67
2022/08/08 06:25:07;;;;;;;;;;;24.70;95.40;;;;;;5093428;28;19913;-67
2022/08/08 06:27:43;;;;;;;;;;;25.40;92.50;;;;;;5093668;28;20358;-67
2022/08/08 06:30:11;;;;;;;;;;;26.70;91.60;;;;;;5075325;28;19962;-68
2022/08/08 06:32:40;;;;;;;;;;;27.10;90.40;;;;;;5093337;28;19915;-68
2022/08/08 06:35:09;;;;;;;;;;;27.40;89.20;;;;;;5093290;28;19961;-68
2022/08/08 06:37:36;;;;;;;;;;;27.80;85.70;;;;;;5093055;28;19969;-70
2022/08/08 06:40:04;;;;;;;;;;;27.20;86.50;;;;;;5093600;28;19909;-69
2022/08/08 06:42:32;;;;;;;;;;;27.40;85.70;;;;;;5093190;28;19957;-68
2022/08/08 06:44:58;;;;;;;;;;;25.70;87.50;;;;;;5093167;28;19908;-67
2022/08/08 06:47:24;;;;;;;;;;;25.70;89.80;;;;;;5093528;28;19951;-68
2022/08/08 06:49:50;;;;;;;;;;;26.80;88.20;;;;;;5093489;28;20313;-68
2022/08/08 06:52:16;;;;;;;;;;;26.70;85.80;;;;;;5094394;28;19919;-67
2022/08/08 06:54:41;;;;;;;;;;;26.90;85.50;;;;;;5097008;28;20384;-67
2022/08/08 06:57:08;;;;;;;;;;;27.10;84.40;;;;;;5096993;28;19908;-67
2022/08/08 06:59:35;;;;;;;;;;;26.80;84.30;;;;;;5096966;28;19954;-68
2022/08/08 07:02:01;;;;;;;;;;;26.40;85.70;;;;;;5096552;28;19912;-67
2022/08/08 07:04:47;;;;;;;;;;;26.70;84.10;;;;;;5089362;28;19919;-67
2022/08/08 07:07:15;;;;;;;;;;;26.30;85.40;;;;;;5095088;28;20401;-67
2022/08/08 07:09:46;;;;;;;;;;;26.10;87.10;;;;;;5096507;28;19909;-67
2022/08/08 07:12:15;;;;;;;;;;;27.10;85.10;;;;;;5095350;28;20010;-67
2022/08/08 07:14:45;;;;;;;;;;;27.70;81.40;;;;;;5096025;28;19916;-67
2022/08/08 07:17:16;;;;;;;;;;;27.10;80.10;;;;;;5096359;28;19999;-68
2022/08/08 07:20:01;;;;;;;;;;;28.30;80.50;;;;;;5096720;28;19911;-67
2022/08/08 07:22:34;;;;;;;;;;;28.30;78.30;;;;;;5096025;28;19942;-67
2022/08/08 07:25:02;;;;;;;;;;;27.60;79.00;;;;;;5095199;28;20362;-67
2022/08/08 07:27:32;;;;;;;;;;;28.00;80.30;;;;;;5096001;28;19916;-68
2022/08/08 07:29:58;;;;;;;;;;;28.60;75.90;;;;;;5095882;28;19919;-67
2022/08/08 07:32:24;;;;;;;;;;;28.50;75.90;;;;;;5096459;28;20358;-68
2022/08/08 07:34:51;;;;;;;;;;;28.00;76.40;;;;;;5095708;28;19916;-67
2022/08/08 07:37:21;;;;;;;;;;;29.30;74.40;;;;;;5095880;28;19915;-67
2022/08/08 07:39:47;;;;;;;;;;;29.40;73.00;;;;;;5095315;28;19999;-67
2022/08/08 07:42:16;;;;;;;;;;;28.80;74.80;;;;;;5061137;28;19908;-67
2022/08/08 07:44:42;;;;;;;;;;;29.40;74.20;;;;;;5095838;28;20286;-67
2022/08/08 07:47:08;;;;;;;;;;;29.30;72.70;;;;;;5095638;28;19944;-67
2022/08/08 07:49:35;;;;;;;;;;;28.60;74.00;;;;;;5095532;28;20004;-66
2022/08/08 07:52:01;;;;;;;;;;;28.30;75.00;;;;;;5095727;28;19958;-66
2022/08/08 07:54:47;;;;;;;;;;;29.10;74.00;;;;;;5095180;28;19953;-67
2022/08/08 07:57:19;;;;;;;;;;;29.30;73.60;;;;;;5094899;28;19916;-67
2022/08/08 07:59:52;;;;;;;;;;;29.90;72.00;;;;;;5095530;28;19962;-67
2022/08/08 08:02:21;;;;;;;;;;;29.90;70.80;;;;;;5095752;28;19908;-67
2022/08/08 08:04:47;;;;;;;;;;;29.10;71.70;;;;;;5094653;28;19920;-67
2022/08/08 08:07:14;;;;;;;;;;;28.10;73.10;;;;;;5094820;28;19916;-67
2022/08/08 08:09:41;;;;;;;;;;;27.60;75.70;;;;;;5089012;28;19935;-66
2022/08/08 08:12:08;;;;;;;;;;;28.60;75.70;;;;;;5113677;28;20264;-66
2022/08/08 08:14:52;;;;;;;;;;;29.60;72.10;;;;;;5104388;28;20022;-66
2022/08/08 08:17:19;;;;;;;;;;;30.10;70.80;;;;;;5094747;28;19915;-66
2022/08/08 08:19:47;;;;;;;;;;;29.90;69.10;;;;;;5095271;28;19973;-67
2022/08/08 08:22:14;;;;;;;;;;;30.40;68.40;;;;;;5095424;28;19914;-67
2022/08/08 08:24:41;;;;;;;;;;;29.70;69.50;;;;;;5094675;28;19908;-67
2022/08/08 08:27:07;;;;;;;;;;;29.80;70.50;;;;;;5094663;28;19916;-67
2022/08/08 08:29:32;;;;;;;;;;;30.20;68.30;;;;;;5076949;28;19909;-67
2022/08/08 08:31:58;;;;;;;;;;;30.40;68.20;;;;;;5095296;28;19909;-67
2022/08/08 08:34:24;;;;;;;;;;;30.60;70.20;;;;;;5094430;28;20024;-67
2022/08/08 08:36:49;;;;;;;;;;;30.40;68.20;;;;;;5075723;28;19998;-66
2022/08/08 08:39:15;;;;;;;;;;;30.00;67.20;;;;;;5094718;28;19942;-66
2022/08/08 08:41:41;;;;;;;;;;;30.10;72.10;;;;;;5094138;28;19948;-66
2022/08/08 08:44:06;;;;;;;;;;;30.50;66.70;;;;;;5094281;28;20015;-66
2022/08/08 08:46:33;;;;;;;;;;;29.50;67.50;;;;;;5094470;28;19916;-66
2022/08/08 08:48:59;;;;;;;;;;;29.80;66.80;;;;;;5094366;28;19915;-66
2022/08/08 08:51:27;;;;;;;;;;;29.50;68.10;;;;;;5094209;28;19922;-66
2022/08/08 08:53:54;;;;;;;;;;;29.40;70.70;;;;;;5094490;28;20319;-67
2022/08/08 08:56:20;;;;;;;;;;;29.60;69.00;;;;;;5094549;28;19995;-67
2022/08/08 08:58:46;;;;;;;;;;;29.80;66.90;;;;;;5094437;28;19959;-67
2022/08/08 09:01:13;;;;;;;;;;;29.70;68.00;;;;;;5076600;28;20016;-67
2022/08/08 09:03:39;;;;;;;;;;;30.90;67.10;;;;;;5076055;28;19951;-67
2022/08/08 09:06:08;;;;;;;;;;;30.10;67.90;;;;;;5093278;28;19924;-67
2022/08/08 09:08:35;;;;;;;;;;;30.30;67.60;;;;;;5094536;28;20418;-67
2022/08/08 09:11:01;;;;;;;;;;;31.10;66.40;;;;;;5075848;28;19912;-67
2022/08/08 09:13:27;;;;;;;;;;;30.70;66.00;;;;;;5094466;28;19953;-67
2022/08/08 09:15:53;;;;;;;;;;;30.20;66.50;;;;;;5093527;28;19950;-67
2022/08/08 09:18:19;;;;;;;;;;;29.90;68.40;;;;;;5089462;28;20263;-66
2022/08/08 09:20:45;;;;;;;;;;;30.20;67.80;;;;;;5074116;28;20409;-65
2022/08/08 09:23:12;;;;;;;;;;;30.10;67.80;;;;;;5074000;28;19951;-66
2022/08/08 09:25:42;;;;;;;;;;;31.00;67.50;;;;;;5087890;28;19923;-66
2022/08/08 09:28:07;;;;;;;;;;;31.30;65.60;;;;;;5093524;28;19908;-65
2022/08/08 09:30:37;;;;;;;;;;;30.20;67.30;;;;;;5093852;28;20007;-66
2022/08/08 09:33:03;;;;;;;;;;;30.50;65.00;;;;;;5093693;28;20049;-66
2022/08/08 09:35:30;;;;;;;;;;;30.00;64.50;;;;;;5093323;28;19985;-66
2022/08/08 09:37:59;;;;;;;;;;;29.50;67.20;;;;;;5075238;28;19999;-65
2022/08/08 09:40:26;;;;;;;;;;;29.30;67.00;;;;;;5093945;28;20397;-67
2022/08/08 09:43:05;;;;;;;;;;;30.10;68.70;;;;;;5093986;28;20378;-67
2022/08/08 09:45:32;;;;;;;;;;;30.30;65.10;;;;;;5074877;28;19955;-67
2022/08/08 09:48:00;;;;;;;;;;;30.90;65.00;;;;;;5093763;28;19908;-67
2022/08/08 09:50:26;;;;;;;;;;;30.60;64.10;;;;;;5094010;28;19915;-67
2022/08/08 09:52:52;;;;;;;;;;;30.80;65.20;;;;;;5093767;28;20453;-67
2022/08/08 09:55:19;;;;;;;;;;;30.10;66.40;;;;;;5075144;28;20407;-66
2022/08/08 09:57:46;;;;;;;;;;;30.40;64.30;;;;;;5093655;28;20414;-67
2022/08/08 10:00:12;;;;;;;;;;;30.10;62.60;;;;;;5093681;28;19992;-67
2022/08/08 10:02:39;;;;;;;;;;;30.40;62.30;;;;;;5093608;28;19958;-68
2022/08/08 10:05:06;;;;;;;;;;;29.90;63.80;;;;;;5092886;28;20310;-67
2022/08/08 10:07:32;;;;;;;;;;;30.60;64.10;;;;;;5093452;28;19908;-67
2022/08/08 10:09:57;;;;;;;;;;;30.40;63.20;;;;;;5093746;28;19915;-67
2022/08/08 10:12:31;;;;;;;;;;;30.80;66.10;;;;;;5092555;28;19912;-67
2022/08/08 10:15:00;;;;;;;;;;;30.70;61.50;;;;;;5093287;28;19908;-68
2022/08/08 10:17:26;;;;;;;;;;;31.50;59.60;;;;;;5093102;28;19958;-68
2022/08/08 10:19:55;;;;;;;;;;;31.40;59.00;;;;;;5093725;28;20336;-67
2022/08/08 10:22:22;;;;;;;;;;;30.70;59.80;;;;;;5093634;28;20385;-68
2022/08/08 10:24:48;;;;;;;;;;;31.10;61.70;;;;;;5093094;28;20317;-68
2022/08/08 10:27:13;;;;;;;;;;;30.90;60.80;;;;;;5094453;28;19923;-67
2022/08/08 10:29:48;;;;;;;;;;;31.10;59.40;;;;;;5097021;28;19916;-68
2022/08/08 10:32:34;;;;;;;;;;;30.70;59.90;;;;;;5079512;28;19908;-67
2022/08/08 10:35:00;;;;;;;;;;;30.40;60.20;;;;;;5097177;28;19961;-67
2022/08/08 10:37:27;;;;;;;;;;;31.00;62.70;;;;;;5097228;28;20281;-69
2022/08/08 10:39:53;;;;;;;;;;;31.50;59.20;;;;;;5097296;28;19908;-68
2022/08/08 10:42:20;;;;;;;;;;;31.00;59.00;;;;;;5097253;28;19908;-68
2022/08/08 10:44:46;;;;;;;;;;;30.70;58.10;;;;;;5096847;28;20361;-67
2022/08/08 10:47:14;;;;;;;;;;;30.70;59.60;;;;;;5096580;28;19951;-67
2022/08/08 10:49:40;;;;;;;;;;;30.60;59.40;;;;;;5096647;28;19958;-67
2022/08/08 10:52:05;;;;;;;;;;;30.00;60.90;;;;;;5096502;28;19947;-66
2022/08/08 10:54:31;;;;;;;;;;;29.50;59.50;;;;;;5095914;28;19963;-67
2022/08/08 10:56:57;;;;;;;;;;;29.50;60.00;;;;;;5096701;28;19943;-67
2022/08/08 10:59:23;;;;;;;;;;;29.30;61.70;;;;;;5096822;28;19908;-67
2022/08/08 11:01:49;;;;;;;;;;;29.00;61.50;;;;;;5096760;28;20278;-68
2022/08/08 11:04:15;;;;;;;;;;;29.00;62.30;;;;;;5096403;28;20378;-67
2022/08/08 11:06:40;;;;;;;;;;;28.30;61.90;;;;;;5096288;28;19927;-67
2022/08/08 11:09:07;;;;;;;;;;;27.90;63.40;;;;;;5096549;28;19916;-67
2022/08/08 11:11:37;;;;;;;;;;;28.10;65.10;;;;;;5096697;28;19908;-67
2022/08/08 11:14:04;;;;;;;;;;;28.10;63.80;;;;;;5077951;28;19925;-67
2022/08/08 11:16:31;;;;;;;;;;;28.80;63.70;;;;;;5096389;28;20366;-67
2022/08/08 11:18:58;;;;;;;;;;;28.30;61.50;;;;;;5096124;28;19908;-67
2022/08/08 11:21:24;;;;;;;;;;;28.10;62.00;;;;;;5078371;28;19999;-67
2022/08/08 11:23:52;;;;;;;;;;;27.90;63.00;;;;;;5096366;28;19912;-67
2022/08/08 11:26:18;;;;;;;;;;;28.10;62.50;;;;;;5077370;28;20340;-67
2022/08/08 11:28:44;;;;;;;;;;;28.00;63.10;;;;;;5096362;28;20002;-67
2022/08/08 11:31:13;;;;;;;;;;;27.80;61.70;;;;;;5096252;28;19961;-67
2022/08/08 11:33:39;;;;;;;;;;;27.50;65.70;;;;;;5095697;28;19951;-66
2022/08/08 11:36:05;;;;;;;;;;;27.80;63.40;;;;;;5096189;28;19912;-67
2022/08/08 11:38:31;;;;;;;;;;;27.80;64.40;;;;;;5095495;28;19908;-66
2022/08/08 11:40:56;;;;;;;;;;;28.00;64.50;;;;;;5077762;28;19960;-66
2022/08/08 11:43:23;;;;;;;;;;;28.00;63.50;;;;;;5095819;28;20004;-67
2022/08/08 11:45:50;;;;;;;;;;;27.50;64.80;;;;;;5095910;28;19916;-67
2022/08/08 11:48:16;;;;;;;;;;;27.90;64.60;;;;;;5078203;28;19908;-66
2022/08/08 11:50:42;;;;;;;;;;;27.90;62.80;;;;;;5095946;28;20348;-66
2022/08/08 11:53:08;;;;;;;;;;;28.10;64.60;;;;;;5095646;28;19991;-67
2022/08/08 11:55:34;;;;;;;;;;;28.20;64.10;;;;;;5095857;28;19943;-66
2022/08/08 11:58:08;;;;;;;;;;;27.20;64.10;;;;;;5095763;28;20345;-66
2022/08/08 12:00:41;;;;;;;;;;;27.80;65.10;;;;;;5075264;28;20327;-66
2022/08/08 12:03:14;;;;;;;;;;;27.80;64.20;;;;;;5079979;28;20374;-66
2022/08/08 12:05:39;;;;;;;;;;;28.30;62.60;;;;;;5095263;28;19967;-67
2022/08/08 12:08:05;;;;;;;;;;;27.50;62.50;;;;;;5095842;28;19935;-66
2022/08/08 12:10:31;;;;;;;;;;;27.80;65.10;;;;;;5077593;28;19908;-66
2022/08/08 12:13:01;;;;;;;;;;;28.00;64.60;;;;;;5095385;28;19929;-66
2022/08/08 12:15:29;;;;;;;;;;;27.80;63.90;;;;;;5095426;28;19908;-66
2022/08/08 12:17:55;;;;;;;;;;;28.20;64.10;;;;;;5095634;28;19911;-66
2022/08/08 12:20:21;;;;;;;;;;;27.90;63.80;;;;;;5095328;28;20290;-67
2022/08/08 12:22:48;;;;;;;;;;;28.00;63.60;;;;;;5095003;28;19915;-67
2022/08/08 12:25:21;;;;;;;;;;;27.50;63.20;;;;;;5095019;28;19916;-66
2022/08/08 12:27:47;;;;;;;;;;;27.50;65.40;;;;;;5095455;28;20365;-66
2022/08/08 12:30:13;;;;;;;;;;;27.40;64.70;;;;;;5094908;28;19914;-67
2022/08/08 12:32:40;;;;;;;;;;;27.70;64.00;;;;;;5095000;28;19962;-66
2022/08/08 12:35:07;;;;;;;;;;;27.50;65.30;;;;;;5094804;28;20358;-67
2022/08/08 12:37:34;;;;;;;;;;;28.00;64.60;;;;;;5095178;28;20024;-67
2022/08/08 12:40:10;;;;;;;;;;;28.10;62.80;;;;;;5094915;28;19974;-66
2022/08/08 12:42:51;;;;;;;;;;;28.40;64.30;;;;;;5095150;28;19916;-66
2022/08/08 12:45:17;;;;;;;;;;;28.30;62.50;;;;;;5094401;28;19943;-67
2022/08/08 12:47:42;;;;;;;;;;;28.30;60.90;;;;;;5094817;28;19908;-67
2022/08/08 12:50:09;;;;;;;;;;;28.50;62.90;;;;;;5093618;28;19912;-66
2022/08/08 12:52:38;;;;;;;;;;;28.90;62.80;;;;;;5094491;28;19991;-67
2022/08/08 12:55:05;;;;;;;;;;;29.10;63.20;;;;;;5094236;28;20366;-67
2022/08/08 12:57:31;;;;;;;;;;;29.00;62.20;;;;;;5076542;28;19909;-68
2022/08/08 12:59:57;;;;;;;;;;;28.70;62.30;;;;;;5094214;28;19908;-67
2022/08/08 13:02:26;;;;;;;;;;;28.80;62.90;;;;;;5094274;28;20072;-66
2022/08/08 13:04:52;;;;;;;;;;;28.70;61.90;;;;;;5093574;28;20294;-66
2022/08/08 13:07:18;;;;;;;;;;;28.20;62.40;;;;;;5094414;28;19915;-66
2022/08/08 13:09:56;;;;;;;;;;;28.30;63.60;;;;;;5076157;28;19914;-66
2022/08/08 13:12:31;;;;;;;;;;;28.00;62.70;;;;;;5094028;28;19908;-66
2022/08/08 13:14:58;;;;;;;;;;;27.90;64.10;;;;;;5093977;28;20372;-68
2022/08/08 13:17:25;;;;;;;;;;;28.20;62.30;;;;;;5094519;28;19909;-68
2022/08/08 13:19:51;;;;;;;;;;;28.30;63.00;;;;;;5094194;28;20398;-67
2022/08/08 13:22:17;;;;;;;;;;;27.60;61.60;;;;;;5093584;28;19912;-68
2022/08/08 13:24:43;;;;;;;;;;;27.80;64.50;;;;;;5093625;28;19919;-68
2022/08/08 13:27:10;;;;;;;;;;;27.60;63.60;;;;;;5094105;28;19912;-67
2022/08/08 13:29:38;;;;;;;;;;;27.70;64.40;;;;;;5093972;28;19977;-67
2022/08/08 13:32:04;;;;;;;;;;;27.20;63.70;;;;;;5093594;28;20278;-67
2022/08/08 13:34:30;;;;;;;;;;;27.20;65.70;;;;;;5093393;28;19972;-67
2022/08/08 13:36:56;;;;;;;;;;;27.40;64.30;;;;;;5093858;28;19919;-67
2022/08/08 13:39:22;;;;;;;;;;;27.60;65.30;;;;;;5093828;28;20367;-68
2022/08/08 13:41:48;;;;;;;;;;;27.80;63.70;;;;;;5093712;28;19995;-68
2022/08/08 13:44:14;;;;;;;;;;;28.00;63.90;;;;;;5093301;28;19908;-68
2022/08/08 13:46:51;;;;;;;;;;;27.80;61.80;;;;;;5075089;28;19924;-67
2022/08/08 13:49:17;;;;;;;;;;;27.30;63.50;;;;;;5088850;28;19917;-67
2022/08/08 13:52:02;;;;;;;;;;;26.70;65.80;;;;;;5073113;28;19919;-69
2022/08/08 13:54:29;;;;;;;;;;;27.10;66.40;;;;;;5073112;28;19931;-68
2022/08/08 13:56:59;;;;;;;;;;;27.30;65.00;;;;;;5074395;28;19952;-69
2022/08/08 13:59:42;;;;;;;;;;;27.30;64.10;;;;;;5075648;28;20355;-68
2022/08/08 14:02:13;;;;;;;;;;;27.30;64.10;;;;;;5093597;28;19958;-68
2022/08/08 14:04:38;;;;;;;;;;;27.40;65.00;;;;;;5092690;28;19959;-67
2022/08/08 14:07:04;;;;;;;;;;;27.60;65.60;;;;;;5093054;28;19963;-67
2022/08/08 14:09:31;;;;;;;;;;;27.60;64.10;;;;;;5093417;28;20347;-67
2022/08/08 14:11:58;;;;;;;;;;;27.70;63.90;;;;;;5093160;28;19916;-68
2022/08/08 14:14:33;;;;;;;;;;;27.60;64.80;;;;;;5093367;28;19957;-67
2022/08/08 14:17:01;;;;;;;;;;;27.50;64.80;;;;;;5093423;28;20393;-66
2022/08/08 14:19:30;;;;;;;;;;;27.30;65.60;;;;;;5074136;28;19912;-67
2022/08/08 14:21:57;;;;;;;;;;;27.60;65.50;;;;;;5093310;28;19916;-67
2022/08/08 14:24:31;;;;;;;;;;;27.50;65.10;;;;;;5093136;28;19980;-67
2022/08/08 14:26:56;;;;;;;;;;;27.60;65.10;;;;;;5093272;28;19919;-65
2022/08/08 14:29:22;;;;;;;;;;;27.20;65.10;;;;;;5074971;28;19912;-65
2022/08/08 14:31:49;;;;;;;;;;;26.70;65.50;;;;;;5093081;28;19961;-68
2022/08/08 14:34:14;;;;;;;;;;;26.60;66.30;;;;;;5093316;28;19919;-66
2022/08/08 14:36:40;;;;;;;;;;;26.70;66.90;;;;;;5093234;28;19908;-65
2022/08/08 14:39:06;;;;;;;;;;;27.00;66.60;;;;;;5093009;28;19939;-65
2022/08/08 14:41:39;;;;;;;;;;;27.30;65.90;;;;;;5093382;28;19909;-65
2022/08/08 14:44:06;;;;;;;;;;;27.40;64.60;;;;;;5073084;28;19920;-67